Vaaraa aiheuttavia sääilmiöitä ei ole odotettavissa.    Ei varoituksia

Webkamera Lisätietoa Webcam


Yksityisiä sääasemia lähellä:

Sääasema Juupajoki

Sääasema Orivesi

Sääasema Muurame

Sääasema Jyväskylä

Sääasema Vihtavuori


Löydät sääaseman tiedot myös:

Finland Weather Exchange

European Weather Network

Weather Underground

AWEKAS

Windy.com



Säätiedot lähimmiltä METAR asemilta

   
EFHA - Halli (Fin-Afb), Finland
Etäisyys asemalta: Kaakko 25 km
Päivitetty: 10.07.2020 02:50
Lähialueella sadekuuroja, Puolipilvistä  
Lähialueella sadekuuroja, Puolipilvistä  
   Tuuli: Länsilounas 3.1 m/s
Tuuli: Länsilounas 3.1 m/s
Lämpötila: 10°C
Tuulen hyytävyys: 8°C
Kastepiste: 9°C
Kosteus: 94%
Ilmanpaine: 1008 hPa
Pilvisyys: Puolipilvistä
Näkyvyys: Enemmän kuin 10 km
Pilvitiedot: Vähäistä pilvisyyttä 671 m,
Puolipilvistä 1067 m,
Ukkosta
EFHA 092350Z AUTO 24006KT 9999 VCSH FEW022 SCT035 //////CB 10/09 Q1008
EFJY - Jyvaskyla (Mil/Civ), Finland
Etäisyys asemalta: Koillinen 75 km
Päivitetty: 10.07.2020 02:50
Lähialueella sadekuuroja, Ukkosta  
Lähialueella sadekuuroja, Ukkosta  
   Tuuli: Etelälounas 1.5 m/s
Tuuli: Etelälounas 1.5 m/s
Lämpötila: 8°C
Tuulen hyytävyys: 7°C
Kastepiste: 8°C
Kosteus: 100%
Ilmanpaine: 1007 hPa
Pilvisyys: Ukkosta
Näkyvyys: Enemmän kuin 10 km
Pilvitiedot: Ukkosta
EFJY 092350Z AUTO 21003KT 170V260 9999 VCSH //////CB 08/08 Q1007
EFTP - Tampere/Pirkkala, Finland
Etäisyys asemalta: Lounas 81 km
Päivitetty: 10.07.2020 02:50
Vähäistä pilvisyyttä  
Vähäistä pilvisyyttä  
   Tuuli: Lounas 3.6 m/s
Tuuli: Lounas 3.6 m/s
Lämpötila: 10°C
Tuulen hyytävyys: 8°C
Kastepiste: 8°C
Kosteus: 88%
Ilmanpaine: 1009 hPa
Pilvisyys: Vähäistä pilvisyyttä
Näkyvyys: Enemmän kuin 10 km
Pilvitiedot: Vähäistä pilvisyyttä 1311 m
EFTP 092350Z AUTO 23007KT 9999 FEW043 10/08 Q1009
EFSI - Seinajoki-Ilmajoki, Finland
Etäisyys asemalta: Luode 114 km
Päivitetty: 10.07.2020 02:50
Heikkoja sadekuuroja, Sade, Melkein pilvistä  
Heikkoja sadekuuroja, Sade, Melkein pilvistä  
   Tuuli: Etelä 2.1 m/s
Tuuli: Etelä 2.1 m/s
Lämpötila: 9°C
Tuulen hyytävyys: 8°C
Kastepiste: 9°C
Kosteus: 100%
Ilmanpaine: 1006 hPa
Pilvisyys: Melkein pilvistä
Näkyvyys: Enemmän kuin 10 km
Pilvitiedot: Vähäistä pilvisyyttä 1524 m,
Puolipilvistä 2896 m,
Melkein pilvistä 3658 m
EFSI 092350Z AUTO 18004KT 130V220 9999 -SHRA FEW050 SCT095 BKN120 09/09 Q1006
EFMI - Mikkeli, Finland
Etäisyys asemalta: Itäkaakko 147 km
Päivitetty: 10.07.2020 02:50
Pilvistä  
Pilvistä  
   Tuuli: Etelälounas 2.1 m/s
Tuuli: Etelälounas 2.1 m/s
Pilvisyys: Pilvistä
Näkyvyys: Enemmän kuin 10 km
Pilvitiedot: Melkein pilvistä 457 m,
Pilvistä 1189 m
EFMI 092350Z AUTO 21004KT 160V250 9999 BKN015 OVC039 ///// Q////
EFPO - Pori (Mil/Civ), Finland
Etäisyys asemalta: Länsilounas 154 km
Päivitetty: 10.07.2020 02:50
Selkeää  
Selkeää  
   Tuuli: Etelä 1.5 m/s
Tuuli: Etelä 1.5 m/s
Lämpötila: 10°C
Tuulen hyytävyys: 9°C
Kastepiste: 10°C
Kosteus: 100%
Ilmanpaine: 1008 hPa
Näkyvyys: Enemmän kuin 10 km
Pilvitiedot: Selkeää
EFPO 092350Z AUTO 17003KT CAVOK 10/10 Q1008
EFUT - Utti (Fin-Afb), Finland
Etäisyys asemalta: Kaakko 180 km
Päivitetty: 10.07.2020 02:50
Selkeää  
Selkeää  
   Tuuli: Lounas 4.6 m/s
Tuuli: Lounas 4.6 m/s
Lämpötila: 10°C
Tuulen hyytävyys: 8°C
Kastepiste: 9°C
Kosteus: 94%
Ilmanpaine: 1010 hPa
Näkyvyys: Enemmän kuin 10 km
Pilvitiedot: Selkeää
EFUT 092350Z AUTO 22009KT CAVOK 10/09 Q1010
EFVA - Vaasa, Finland
Etäisyys asemalta: Luode 180 km
Päivitetty: 10.07.2020 02:50
Heikkoja sadekuuroja, Sade, Vähäistä pilvisyyttä  
Heikkoja sadekuuroja, Sade, Vähäistä pilvisyyttä  
   Tuuli: Lounas 2.6 m/s
Tuuli: Lounas 2.6 m/s
Lämpötila: 11°C
Kastepiste: 10°C
Kosteus: 94%
Ilmanpaine: 1005 hPa
Pilvisyys: Vähäistä pilvisyyttä
Näkyvyys: Enemmän kuin 10 km
Pilvitiedot: Vähäistä pilvisyyttä 1128 m,
Ukkosta
EFVA 092350Z AUTO 22005KT 9999 -SHRA FEW037 //////CB 11/10 Q1005
EFHK - Helsinki/Vantaa, Finland
Etäisyys asemalta: Etelä 191 km
Päivitetty: 10.07.2020 02:50
Vähäistä pilvisyyttä  
Vähäistä pilvisyyttä  
   Tuuli: Etelälounas 2.6 m/s
Tuuli: Etelälounas 2.6 m/s
Lämpötila: 11°C
Kastepiste: 10°C
Kosteus: 94%
Ilmanpaine: 1010 hPa
Pilvisyys: Vähäistä pilvisyyttä
Näkyvyys: Enemmän kuin 10 km
Pilvitiedot: Vähäistä pilvisyyttä 244 m
EFHK 092350Z 20005KT 9999 FEW008 11/10 Q1010 TEMPO BKN008

Alkuperäinen skripti  Saratoga-weather.org Sovitettu myös templatelle  Weerstation Leuven

Laitteet joita käytämme:

Sääasema
Davis VP2

Sääasemaohjelma
Cumulus

Sääaseman palvelin
HP ProBook 6460b

Palveluntarjoaja
Radicenter

Davis VP2

Cumulus

HP ProBook 6460b

Radicenter




Flag Counter Cumulus Top Weather Sites